createdAt,value
2023-05-15T00:01:58.407Z,19.93
2023-05-15T00:04:27.401Z,18.97
2023-05-15T00:06:57.374Z,22.00
2023-05-15T00:09:25.835Z,20.13
2023-05-15T00:11:54.273Z,19.50
2023-05-15T00:14:22.862Z,20.50
2023-05-15T00:16:51.360Z,18.37
2023-05-15T00:19:19.841Z,19.77
2023-05-15T00:21:48.479Z,21.60
2023-05-15T00:24:18.653Z,21.90
2023-05-15T00:26:47.228Z,18.57
2023-05-15T00:29:15.742Z,22.10
2023-05-15T00:31:44.353Z,22.00
2023-05-15T00:34:13.074Z,23.43
2023-05-15T00:36:41.732Z,21.03
2023-05-15T00:39:10.166Z,23.80
2023-05-15T00:41:42.034Z,22.20
2023-05-15T00:44:12.618Z,23.20
2023-05-15T00:46:41.306Z,23.43
2023-05-15T00:49:13.760Z,23.37
2023-05-15T00:51:43.369Z,23.67
2023-05-15T00:54:12.473Z,25.77
2023-05-15T00:56:44.596Z,25.47
2023-05-15T00:59:14.669Z,24.23
2023-05-15T01:01:45.339Z,23.63
2023-05-15T01:04:14.094Z,25.10
2023-05-15T01:06:43.616Z,23.80
2023-05-15T01:09:15.270Z,25.87
2023-05-15T01:11:48.139Z,24.77
2023-05-15T01:14:16.644Z,25.23
2023-05-15T01:16:46.651Z,26.40
2023-05-15T01:19:15.903Z,26.20
2023-05-15T01:22:20.607Z,26.87
2023-05-15T01:25:19.289Z,25.07
2023-05-15T01:27:52.774Z,25.10
2023-05-15T01:30:28.437Z,26.13
2023-05-15T01:33:04.790Z,26.00
2023-05-15T01:35:39.808Z,27.40
2023-05-15T01:38:16.810Z,25.07
2023-05-15T01:40:49.063Z,26.93
2023-05-15T01:43:23.091Z,26.77
2023-05-15T01:45:51.834Z,27.73
2023-05-15T01:48:21.848Z,27.97
2023-05-15T01:50:52.981Z,26.80
2023-05-15T01:53:22.195Z,28.17
2023-05-15T01:55:52.145Z,25.60
2023-05-15T01:58:22.840Z,27.70
2023-05-15T02:00:52.715Z,28.90
2023-05-15T02:03:21.724Z,27.27
2023-05-15T02:05:51.991Z,26.50
2023-05-15T02:08:22.327Z,27.93
2023-05-15T02:10:51.604Z,27.63
2023-05-15T02:13:23.646Z,27.47
2023-05-15T02:15:52.214Z,27.43
2023-05-15T02:18:20.872Z,26.47
2023-05-15T02:20:49.432Z,25.80
2023-05-15T02:23:18.117Z,28.13
2023-05-15T02:26:05.873Z,26.73
2023-05-15T02:28:46.480Z,27.20
2023-05-15T02:31:24.474Z,25.73
2023-05-15T02:34:00.514Z,26.63
2023-05-15T02:36:34.310Z,27.03
2023-05-15T02:39:06.567Z,26.87
2023-05-15T02:41:38.227Z,27.27
2023-05-15T02:44:09.643Z,27.10
2023-05-15T02:46:39.231Z,25.80
2023-05-15T02:49:15.019Z,24.57
2023-05-15T02:51:43.962Z,25.83
2023-05-15T02:54:13.004Z,24.47
2023-05-15T02:56:41.518Z,26.80
2023-05-15T02:59:13.156Z,25.77
2023-05-15T03:01:41.739Z,24.97
2023-05-15T03:04:10.598Z,24.57
2023-05-15T03:06:39.255Z,23.80
2023-05-15T03:09:08.481Z,25.10
2023-05-15T03:11:37.038Z,25.87
2023-05-15T03:14:05.542Z,24.23
2023-05-15T03:16:37.141Z,25.77
2023-05-15T03:19:05.925Z,25.60
2023-05-15T03:21:35.072Z,26.57
2023-05-15T03:24:03.629Z,26.47
2023-05-15T03:26:32.188Z,25.83
2023-05-15T03:29:02.214Z,27.57
2023-05-15T03:31:30.740Z,26.67
2023-05-15T03:34:00.547Z,26.93
2023-05-15T03:36:29.148Z,27.27
2023-05-15T03:38:57.595Z,26.27
2023-05-15T03:41:26.210Z,28.13
2023-05-15T03:43:54.719Z,28.87
2023-05-15T03:46:23.487Z,29.53
2023-05-15T03:48:51.957Z,29.60
2023-05-15T03:51:21.788Z,28.77
2023-05-15T03:53:50.748Z,30.57
2023-05-15T03:56:19.731Z,34.00
2023-05-15T03:58:48.688Z,33.70
2023-05-15T04:01:17.540Z,35.73
2023-05-15T04:03:45.982Z,34.53
2023-05-15T04:06:14.479Z,37.73
2023-05-15T04:08:44.398Z,38.10
2023-05-15T04:11:13.128Z,39.37
2023-05-15T04:13:41.858Z,40.90
2023-05-15T04:16:10.462Z,39.20
2023-05-15T04:18:38.906Z,40.10
2023-05-15T04:21:07.687Z,44.50
2023-05-15T04:23:36.138Z,44.83
2023-05-15T04:26:06.175Z,45.73
2023-05-15T04:28:34.750Z,44.73
2023-05-15T04:31:03.301Z,44.47
2023-05-15T04:33:31.828Z,45.50
2023-05-15T04:36:00.895Z,45.97
2023-05-15T04:38:29.266Z,44.37
2023-05-15T04:40:58.104Z,41.17
2023-05-15T04:43:28.005Z,43.37
2023-05-15T04:45:56.612Z,44.67
2023-05-15T04:48:25.148Z,43.87
2023-05-15T04:50:53.659Z,45.70
2023-05-15T04:53:22.074Z,44.73
2023-05-15T04:55:51.805Z,43.47
2023-05-15T04:58:20.469Z,44.73
2023-05-15T05:00:50.709Z,44.93
2023-05-15T05:03:19.596Z,43.50
2023-05-15T05:05:48.525Z,44.83
2023-05-15T05:08:17.021Z,45.90
2023-05-15T05:10:45.392Z,43.47
2023-05-15T05:13:14.161Z,42.40
2023-05-15T05:15:42.785Z,43.00
2023-05-15T05:18:12.657Z,42.97
2023-05-15T05:20:41.161Z,44.20
2023-05-15T05:23:09.753Z,41.77
2023-05-15T05:25:38.303Z,43.07
2023-05-15T05:28:06.862Z,42.43
2023-05-15T05:30:35.466Z,44.13
2023-05-15T05:33:04.208Z,45.87
2023-05-15T05:35:34.190Z,43.20
2023-05-15T05:38:02.723Z,44.73
2023-05-15T05:40:31.484Z,43.63
2023-05-15T05:43:01.756Z,43.30
2023-05-15T05:45:30.660Z,41.63
2023-05-15T05:47:59.634Z,41.47
2023-05-15T05:50:28.223Z,42.43
2023-05-15T05:52:58.028Z,40.87
2023-05-15T05:55:26.961Z,43.83
2023-05-15T05:57:55.782Z,44.03
2023-05-15T06:00:25.451Z,42.70
2023-05-15T06:02:58.516Z,42.33
2023-05-15T06:05:27.672Z,44.53
2023-05-15T06:07:58.082Z,45.30
2023-05-15T06:10:27.174Z,45.03
2023-05-15T06:12:55.841Z,44.17
2023-05-15T06:15:24.726Z,43.03
2023-05-15T06:17:53.588Z,40.53
2023-05-15T06:20:22.265Z,44.70
2023-05-15T06:22:50.735Z,41.93
2023-05-15T06:25:21.062Z,41.83
2023-05-15T06:27:49.606Z,40.87
2023-05-15T06:30:18.225Z,39.83
2023-05-15T06:32:47.425Z,42.63
2023-05-15T06:35:16.400Z,41.63
2023-05-15T06:37:44.993Z,41.93
2023-05-15T06:40:14.016Z,38.77
2023-05-15T06:42:43.929Z,41.40
2023-05-15T06:45:14.290Z,39.20
2023-05-15T06:47:42.900Z,39.90
2023-05-15T06:50:12.037Z,38.03
2023-05-15T06:52:40.660Z,36.57
2023-05-15T06:55:10.009Z,36.80
2023-05-15T06:57:38.710Z,37.80
2023-05-15T07:00:10.129Z,38.20
2023-05-15T07:02:38.879Z,37.30
2023-05-15T07:05:09.033Z,36.83
2023-05-15T07:07:37.712Z,39.13
2023-05-15T07:10:07.243Z,38.53
2023-05-15T07:12:36.020Z,38.03
2023-05-15T07:15:04.823Z,37.13
2023-05-15T07:17:35.330Z,38.90
2023-05-15T07:20:06.274Z,37.80
2023-05-15T07:22:41.562Z,36.77
2023-05-15T07:25:17.482Z,36.00
2023-05-15T07:27:46.102Z,36.50
2023-05-15T07:30:15.456Z,34.90
2023-05-15T07:32:45.727Z,33.23
2023-05-15T07:35:14.513Z,33.73
2023-05-15T07:37:42.895Z,31.73
2023-05-15T07:40:12.137Z,32.47
2023-05-15T07:42:40.913Z,31.47
2023-05-15T07:45:10.425Z,30.40
2023-05-15T07:47:39.135Z,32.03
2023-05-15T07:50:10.160Z,33.23
2023-05-15T07:52:38.839Z,36.07
2023-05-15T07:55:08.162Z,37.77
2023-05-15T07:57:36.853Z,34.20
2023-05-15T08:00:09.241Z,30.83
2023-05-15T08:02:46.333Z,29.50
2023-05-15T08:05:17.029Z,33.47
2023-05-15T08:07:45.641Z,38.60
2023-05-15T08:10:14.194Z,37.30
2023-05-15T08:12:46.321Z,37.73
2023-05-15T08:15:15.250Z,35.47
2023-05-15T08:17:43.834Z,36.67
2023-05-15T08:20:13.721Z,35.93
2023-05-15T08:22:44.138Z,34.03
2023-05-15T08:25:12.563Z,32.77
2023-05-15T08:27:41.083Z,30.30
2023-05-15T08:30:10.577Z,27.83
2023-05-15T08:32:39.258Z,29.27
2023-05-15T08:35:09.283Z,28.17
2023-05-15T08:37:37.826Z,29.73
2023-05-15T08:40:09.482Z,31.77
2023-05-15T08:42:44.681Z,28.10
2023-05-15T08:45:14.397Z,29.53
2023-05-15T08:47:44.405Z,29.57
2023-05-15T08:50:15.339Z,27.23
2023-05-15T08:52:45.713Z,28.53
2023-05-15T08:55:16.767Z,32.10
2023-05-15T08:57:46.356Z,30.43
2023-05-15T09:00:16.249Z,27.03
2023-05-15T09:02:45.006Z,27.40
2023-05-15T09:05:14.040Z,28.67
2023-05-15T09:07:46.830Z,25.27
2023-05-15T09:10:19.091Z,25.80
2023-05-15T09:12:48.593Z,26.33
2023-05-15T09:15:22.321Z,26.13
2023-05-15T09:17:52.910Z,23.33
2023-05-15T09:20:30.905Z,23.90
2023-05-15T09:23:01.855Z,26.07
2023-05-15T09:25:37.785Z,24.20
2023-05-15T09:28:07.880Z,25.73
2023-05-15T09:30:39.732Z,26.23
2023-05-15T09:33:10.329Z,22.10
2023-05-15T09:35:40.853Z,21.27
2023-05-15T09:38:11.654Z,23.07
2023-05-15T09:40:42.557Z,23.93
2023-05-15T09:43:13.214Z,23.80
2023-05-15T09:45:43.374Z,23.93
2023-05-15T09:48:13.081Z,22.40
2023-05-15T09:50:43.556Z,20.43
2023-05-15T09:53:14.782Z,19.33
2023-05-15T09:55:45.767Z,22.63
2023-05-15T09:58:16.778Z,20.80
2023-05-15T10:00:49.671Z,19.67
2023-05-15T10:03:23.149Z,17.67
2023-05-15T10:06:03.952Z,15.63
2023-05-15T10:08:34.806Z,14.70
2023-05-15T10:11:06.269Z,16.00
2023-05-15T10:13:37.453Z,15.60
2023-05-15T10:16:07.525Z,14.37
2023-05-15T10:18:39.292Z,15.03
2023-05-15T10:21:09.938Z,15.60
2023-05-15T10:23:42.796Z,15.33
2023-05-15T10:26:21.437Z,13.63
2023-05-15T10:28:52.612Z,13.20
2023-05-15T10:31:22.356Z,13.47
2023-05-15T10:33:53.268Z,13.63
2023-05-15T10:36:22.552Z,14.50
2023-05-15T10:38:53.076Z,13.17
2023-05-15T10:41:26.571Z,14.03
2023-05-15T10:43:57.111Z,14.47
2023-05-15T10:46:26.555Z,14.70
2023-05-15T10:48:56.005Z,16.53
2023-05-15T10:51:29.573Z,16.50
2023-05-15T10:53:59.214Z,15.97
2023-05-15T10:56:31.902Z,16.90
2023-05-15T10:59:08.515Z,16.13
2023-05-15T11:01:38.804Z,14.70
2023-05-15T11:04:21.770Z,15.90
2023-05-15T11:06:52.397Z,17.13
2023-05-15T11:09:38.559Z,12.97
2023-05-15T11:12:10.678Z,15.10
2023-05-15T11:14:41.688Z,15.33
2023-05-15T11:17:12.112Z,14.50
2023-05-15T11:19:58.835Z,15.40
2023-05-15T11:22:32.133Z,14.60
2023-05-15T11:25:02.996Z,15.33
2023-05-15T11:27:34.687Z,15.93
2023-05-15T11:30:15.120Z,15.30
2023-05-15T11:32:53.081Z,13.97
2023-05-15T11:35:25.239Z,14.53
2023-05-15T11:37:56.725Z,16.60
2023-05-15T11:40:28.421Z,16.00
2023-05-15T11:43:07.371Z,16.10
2023-05-15T11:45:38.678Z,15.93
2023-05-15T11:48:13.776Z,18.77
2023-05-15T11:50:43.434Z,16.67
2023-05-15T11:53:13.053Z,15.30
2023-05-15T11:55:44.462Z,15.70
2023-05-15T11:58:17.003Z,14.47
2023-05-15T12:00:48.452Z,16.67
2023-05-15T12:03:19.460Z,17.20
2023-05-15T12:05:58.295Z,17.93
2023-05-15T12:08:34.523Z,17.83
2023-05-15T12:11:04.590Z,17.70
2023-05-15T12:13:35.680Z,15.77
2023-05-15T12:16:05.867Z,15.57
2023-05-15T12:18:35.709Z,15.47
2023-05-15T12:21:06.191Z,20.53
2023-05-15T12:23:35.168Z,22.07
2023-05-15T12:26:05.335Z,20.83
2023-05-15T12:28:37.663Z,21.30
2023-05-15T12:31:07.260Z,21.23
2023-05-15T12:33:36.311Z,21.37
2023-05-15T12:36:06.027Z,20.90
2023-05-15T12:38:35.563Z,20.90
2023-05-15T12:41:04.708Z,19.60
2023-05-15T12:43:34.310Z,19.67
2023-05-15T12:46:05.019Z,18.77
2023-05-15T12:48:34.448Z,16.93
2023-05-15T12:51:08.354Z,16.43
2023-05-15T12:53:40.084Z,17.43
2023-05-15T12:56:10.377Z,14.90
2023-05-15T12:58:40.550Z,13.87
2023-05-15T13:01:11.256Z,16.87
2023-05-15T13:03:40.865Z,15.00
2023-05-15T13:06:11.434Z,16.50
2023-05-15T13:08:45.702Z,15.83
2023-05-15T13:11:15.868Z,15.67
2023-05-15T13:13:46.807Z,18.47
2023-05-15T13:16:27.221Z,17.03
2023-05-15T13:18:57.436Z,16.53
2023-05-15T13:21:26.501Z,17.17
2023-05-15T13:23:55.538Z,17.30
2023-05-15T13:26:24.496Z,18.20
2023-05-15T13:28:53.542Z,17.13
2023-05-15T13:31:24.181Z,20.10
2023-05-15T13:33:53.274Z,20.87
2023-05-15T13:36:22.355Z,20.07
2023-05-15T13:38:51.625Z,21.47
2023-05-15T13:41:21.464Z,21.30
2023-05-15T13:43:51.862Z,20.17
2023-05-15T13:46:20.849Z,20.37
2023-05-15T13:48:51.128Z,20.47
2023-05-15T13:51:20.320Z,20.63
2023-05-15T13:53:49.873Z,22.40
2023-05-15T13:56:19.265Z,23.60
2023-05-15T13:58:48.391Z,23.10
2023-05-15T14:01:17.506Z,25.00
2023-05-15T14:03:46.720Z,25.10
2023-05-15T14:06:17.086Z,26.67
2023-05-15T14:08:45.943Z,27.73
2023-05-15T14:11:14.871Z,27.37
2023-05-15T14:13:43.648Z,26.97
2023-05-15T14:16:12.540Z,25.73
2023-05-15T14:18:41.581Z,26.87
2023-05-15T14:21:10.541Z,28.50
2023-05-15T14:23:41.528Z,28.70
2023-05-15T14:26:10.735Z,27.03
2023-05-15T14:28:39.939Z,30.53
2023-05-15T14:31:09.119Z,30.80
2023-05-15T14:33:38.187Z,30.03
2023-05-15T14:36:07.352Z,30.77
2023-05-15T14:38:36.591Z,33.37
2023-05-15T14:41:07.342Z,31.33
2023-05-15T14:43:36.319Z,30.87
2023-05-15T14:46:05.813Z,29.03
2023-05-15T14:48:35.248Z,27.60
2023-05-15T14:51:04.256Z,26.83
2023-05-15T14:53:34.704Z,26.40
2023-05-15T14:56:03.857Z,25.47
2023-05-15T14:58:34.264Z,26.03
2023-05-15T15:01:03.984Z,27.53
2023-05-15T15:03:34.176Z,28.37
2023-05-15T15:06:04.594Z,28.60
2023-05-15T15:08:33.761Z,31.57
2023-05-15T15:11:03.046Z,31.47
2023-05-15T15:13:33.526Z,27.97
2023-05-15T15:16:02.496Z,27.77
2023-05-15T15:18:31.871Z,28.43
2023-05-15T15:21:01.025Z,27.60
2023-05-15T15:23:29.924Z,29.83
2023-05-15T15:25:58.922Z,32.03
2023-05-15T15:28:29.468Z,31.63
2023-05-15T15:30:59.810Z,31.60
2023-05-15T15:33:28.752Z,31.20
2023-05-15T15:35:57.620Z,31.53
2023-05-15T15:38:26.537Z,29.90
2023-05-15T15:40:55.433Z,31.40
2023-05-15T15:43:24.517Z,31.10
2023-05-15T15:45:55.436Z,30.50
2023-05-15T15:48:26.074Z,29.87
2023-05-15T15:50:55.320Z,29.57
2023-05-15T15:53:24.695Z,27.97
2023-05-15T15:55:53.478Z,27.33
2023-05-15T15:58:22.494Z,24.37
2023-05-15T16:00:51.798Z,22.90
2023-05-15T16:03:21.052Z,20.80
2023-05-15T16:05:51.778Z,17.77
2023-05-15T16:08:21.057Z,16.30
2023-05-15T16:10:50.186Z,14.77
2023-05-15T16:13:19.133Z,14.90
2023-05-15T16:15:48.210Z,13.50
2023-05-15T16:18:17.367Z,13.40
2023-05-15T16:20:46.604Z,13.93
2023-05-15T16:23:16.928Z,12.87
2023-05-15T16:25:46.333Z,12.60
2023-05-15T16:28:16.086Z,12.00
2023-05-15T16:30:49.463Z,11.03
2023-05-15T16:33:19.315Z,10.77
2023-05-15T16:35:49.150Z,10.27
2023-05-15T16:38:19.672Z,9.47
2023-05-15T16:40:48.801Z,11.13
2023-05-15T16:43:18.318Z,11.53
2023-05-15T16:45:47.534Z,10.63
2023-05-15T16:48:16.605Z,10.67
2023-05-15T16:50:46.065Z,9.80
2023-05-15T16:53:15.536Z,8.67
2023-05-15T16:55:47.219Z,8.83
2023-05-15T16:58:16.283Z,9.63
2023-05-15T17:00:45.626Z,8.80
2023-05-15T17:03:14.797Z,8.40
2023-05-15T17:05:44.156Z,8.80
2023-05-15T17:08:13.277Z,7.90
2023-05-15T17:10:42.443Z,8.27
2023-05-15T17:13:12.818Z,8.57
2023-05-15T17:15:42.044Z,7.83
2023-05-15T17:18:11.271Z,7.67
2023-05-15T17:20:40.256Z,7.17
2023-05-15T17:23:09.400Z,7.23
2023-05-15T17:25:38.480Z,7.50
2023-05-15T17:28:07.475Z,7.50
2023-05-15T17:30:37.941Z,7.13
2023-05-15T17:33:06.830Z,7.07
2023-05-15T17:35:35.680Z,7.30
2023-05-15T17:38:04.635Z,6.63
2023-05-15T17:40:34.049Z,6.37
2023-05-15T17:43:02.565Z,5.60
2023-05-15T17:45:31.200Z,5.17
2023-05-15T17:48:03.907Z,5.03
2023-05-15T17:50:33.723Z,5.50
2023-05-15T17:53:02.341Z,5.37
2023-05-15T17:55:31.146Z,5.47
2023-05-15T17:58:00.149Z,5.40
2023-05-15T18:00:30.983Z,5.50
2023-05-15T18:03:02.017Z,5.00
2023-05-15T18:05:31.509Z,5.30
2023-05-15T18:08:03.622Z,4.43
2023-05-15T18:10:32.557Z,4.60
2023-05-15T18:13:01.403Z,3.90
2023-05-15T18:15:31.984Z,3.30
2023-05-15T18:18:02.107Z,4.03
2023-05-15T18:20:31.125Z,3.87
2023-05-15T18:22:59.903Z,4.40
2023-05-15T18:25:30.849Z,4.47
2023-05-15T18:27:59.729Z,4.10
2023-05-15T18:30:31.628Z,4.00
2023-05-15T18:33:02.041Z,3.80
2023-05-15T18:35:30.960Z,4.00
2023-05-15T18:38:01.098Z,4.03
2023-05-15T18:40:29.721Z,4.27
2023-05-15T18:42:59.083Z,4.63
2023-05-15T18:45:28.243Z,3.50
2023-05-15T18:47:57.311Z,4.33
2023-05-15T18:50:28.147Z,3.83
2023-05-15T18:52:56.862Z,3.67
2023-05-15T18:55:27.608Z,4.33
2023-05-15T18:57:56.735Z,4.20
2023-05-15T19:00:37.074Z,4.00
2023-05-15T19:03:06.762Z,3.93
2023-05-15T19:05:37.206Z,4.33
2023-05-15T19:08:05.737Z,4.70
2023-05-15T19:10:34.397Z,4.90
2023-05-15T19:13:03.257Z,4.10
2023-05-15T19:15:32.289Z,4.57
2023-05-15T19:18:01.154Z,4.30
2023-05-15T19:20:29.854Z,4.77
2023-05-15T19:22:59.926Z,4.63
2023-05-15T19:25:28.871Z,4.90
2023-05-15T19:27:57.664Z,4.33
2023-05-15T19:30:26.478Z,5.53
2023-05-15T19:32:55.813Z,5.07
2023-05-15T19:35:24.777Z,5.27
2023-05-15T19:37:53.515Z,5.00
2023-05-15T19:40:23.744Z,4.93
2023-05-15T19:42:52.725Z,5.13
2023-05-15T19:45:21.571Z,6.47
2023-05-15T19:47:50.350Z,6.30
2023-05-15T19:50:19.367Z,6.47
2023-05-15T19:52:48.144Z,6.23
2023-05-15T19:55:16.816Z,6.50
2023-05-15T19:57:47.069Z,6.43
2023-05-15T20:00:16.479Z,5.83
2023-05-15T20:02:45.069Z,7.77
2023-05-15T20:05:13.664Z,6.33
2023-05-15T20:07:43.270Z,6.30
2023-05-15T20:10:14.751Z,7.00
2023-05-15T20:12:43.714Z,6.57
2023-05-15T20:15:15.343Z,6.77
2023-05-15T20:17:44.671Z,6.97
2023-05-15T20:20:13.944Z,7.57
2023-05-15T20:22:45.219Z,7.63
2023-05-15T20:25:15.405Z,7.27
2023-05-15T20:27:44.285Z,7.93
2023-05-15T20:30:15.195Z,7.03
2023-05-15T20:32:44.448Z,7.30
2023-05-15T20:35:13.269Z,7.13
2023-05-15T20:37:43.058Z,7.50
2023-05-15T20:40:13.195Z,7.90
2023-05-15T20:42:42.077Z,6.23
2023-05-15T20:45:11.723Z,6.63
2023-05-15T20:47:41.866Z,5.77
2023-05-15T20:50:12.326Z,5.17
2023-05-15T20:52:41.172Z,5.87
2023-05-15T20:55:16.266Z,5.57
2023-05-15T20:57:45.837Z,5.40
2023-05-15T21:00:16.739Z,5.20
2023-05-15T21:02:51.622Z,5.53
2023-05-15T21:05:20.422Z,5.10
2023-05-15T21:07:49.068Z,4.63
2023-05-15T21:10:18.013Z,4.57
2023-05-15T21:12:46.748Z,5.90
2023-05-15T21:15:15.653Z,6.77
2023-05-15T21:17:44.222Z,5.40
2023-05-15T21:20:15.059Z,5.40
2023-05-15T21:22:43.517Z,5.53
2023-05-15T21:25:12.406Z,5.80
2023-05-15T21:27:42.141Z,4.43
2023-05-15T21:30:12.050Z,4.53
2023-05-15T21:32:40.695Z,4.23
2023-05-15T21:35:10.189Z,4.80
2023-05-15T21:37:40.020Z,4.87
2023-05-15T21:40:09.825Z,5.37
2023-05-15T21:42:38.503Z,5.57
2023-05-15T21:45:08.347Z,4.40
2023-05-15T21:47:36.869Z,5.10
2023-05-15T21:50:06.283Z,4.80
2023-05-15T21:52:34.701Z,4.97
2023-05-15T21:55:05.100Z,5.20
2023-05-15T21:57:33.798Z,4.33
2023-05-15T22:00:02.618Z,4.60
2023-05-15T22:02:34.411Z,4.83
2023-05-15T22:05:03.024Z,4.73
2023-05-15T22:07:31.673Z,4.53
2023-05-15T22:10:00.146Z,4.20
2023-05-15T22:12:30.109Z,4.60
2023-05-15T22:14:59.706Z,4.20
2023-05-15T22:17:29.391Z,4.43
2023-05-15T22:20:07.022Z,4.20
2023-05-15T22:22:37.146Z,4.17
2023-05-15T22:25:06.936Z,4.57
2023-05-15T22:27:37.153Z,3.77
2023-05-15T22:30:06.548Z,3.60
2023-05-15T22:32:35.266Z,3.60
2023-05-15T22:35:04.437Z,3.67
2023-05-15T22:37:32.928Z,3.63
2023-05-15T22:40:01.687Z,3.17
2023-05-15T22:42:30.736Z,3.77
2023-05-15T22:45:01.147Z,3.30
2023-05-15T22:47:29.951Z,2.80
2023-05-15T22:49:58.388Z,3.37
2023-05-15T22:52:26.907Z,3.27
2023-05-15T22:54:55.536Z,3.50
2023-05-15T22:57:24.344Z,3.40
2023-05-15T22:59:52.824Z,3.33
2023-05-15T23:02:22.811Z,3.17
2023-05-15T23:04:51.219Z,3.00
2023-05-15T23:07:19.582Z,3.47
2023-05-15T23:09:48.202Z,3.03
2023-05-15T23:12:16.884Z,3.07
2023-05-15T23:14:45.515Z,3.60
2023-05-15T23:17:14.314Z,3.20
2023-05-15T23:19:44.366Z,4.10
2023-05-15T23:22:13.382Z,3.40
2023-05-15T23:24:41.754Z,3.93
2023-05-15T23:27:10.256Z,3.47
2023-05-15T23:29:38.707Z,3.40
2023-05-15T23:32:08.263Z,4.07
2023-05-15T23:34:36.723Z,4.23
2023-05-15T23:37:07.009Z,3.03
2023-05-15T23:39:36.186Z,3.60
2023-05-15T23:42:04.592Z,3.07
2023-05-15T23:44:33.155Z,3.30
2023-05-15T23:47:01.919Z,3.30
2023-05-15T23:49:32.852Z,3.83
2023-05-15T23:52:01.383Z,3.13
2023-05-15T23:54:31.275Z,3.30
2023-05-15T23:56:59.759Z,3.73
2023-05-15T23:59:28.643Z,3.40
